Red Owl, South Dakota
Current Conditions -  °F | °C
As of 6:58 AM on Sunday 25 Jan 2015 (Local Time) from KRCA Reporting Station
Scattered Clouds Scattered Clouds  
Wind Chill: 26°   Ceiling: Unl
Heat Index: 35°   Visibility: 10mi
Dew Point: 21°   Wind: 14mph
Humidity: 57%   Direction: 350°N
Pressure: 30.02"   Gusts: NA
Location:  44.7°N, 102.55°W
Report Text: KRCA 251358Z AUTO 35012KT 10SM SCT120 02/M06 A3002 RMK AO2 SLP188 T00171060 $
Loading
Personal Weather Stations






























Interactive Weather Map New forecast layout! Learn more

10-Day Weather Forecast

Advertisements
Track Severe Weather on mobile